createdAt,value
2023-03-23T16:00:11.326Z,14.20
2023-03-23T16:02:38.581Z,14.30
2023-03-23T16:05:06.454Z,14.30
2023-03-23T16:07:33.806Z,14.30
2023-03-23T16:10:00.609Z,14.40
2023-03-23T16:12:27.921Z,14.40
2023-03-23T16:14:54.769Z,14.60
2023-03-23T16:17:21.871Z,14.70
2023-03-23T16:19:48.750Z,14.70
2023-03-23T16:22:17.149Z,14.70
2023-03-23T16:24:44.846Z,14.70
2023-03-23T16:27:12.382Z,14.80
2023-03-23T16:29:59.969Z,14.70
2023-03-23T16:32:26.524Z,14.70
2023-03-23T16:34:53.352Z,14.70
2023-03-23T16:37:20.490Z,14.60
2023-03-23T16:39:47.382Z,14.50
2023-03-23T16:42:14.168Z,14.50
2023-03-23T16:44:40.988Z,14.50
2023-03-23T16:47:10.991Z,14.40
2023-03-23T16:49:37.970Z,14.40
2023-03-23T16:52:04.811Z,14.30
2023-03-23T16:54:31.766Z,14.20
2023-03-23T16:56:58.716Z,14.20
2023-03-23T16:59:27.425Z,14.20
2023-03-23T17:01:54.476Z,14.20
2023-03-23T17:04:21.225Z,14.20
2023-03-23T17:06:48.931Z,14.10
2023-03-23T17:09:15.898Z,14.10
2023-03-23T17:11:42.667Z,14.00
2023-03-23T17:14:09.332Z,14.00
2023-03-23T17:16:36.275Z,14.00
2023-03-23T17:19:03.060Z,13.90
2023-03-23T17:21:29.951Z,13.80
2023-03-23T17:23:56.983Z,13.80
2023-03-23T17:26:23.696Z,13.80
2023-03-23T17:28:50.703Z,13.70
2023-03-23T17:31:17.430Z,13.70
2023-03-23T17:33:44.230Z,13.60
2023-03-23T17:36:11.309Z,13.60
2023-03-23T17:38:38.329Z,13.60
2023-03-23T17:41:07.856Z,13.60
2023-03-23T17:43:36.263Z,13.60
2023-03-23T17:46:03.220Z,13.50
2023-03-23T17:48:30.417Z,13.40
2023-03-23T17:51:02.189Z,13.40
2023-03-23T17:53:30.652Z,13.30
2023-03-23T17:55:58.186Z,13.20
2023-03-23T17:58:26.461Z,13.20
2023-03-23T18:00:53.821Z,13.10
2023-03-23T18:03:21.254Z,13.00
2023-03-23T18:05:47.885Z,13.00
2023-03-23T18:08:14.983Z,12.90
2023-03-23T18:10:41.959Z,12.90
2023-03-23T18:13:09.191Z,12.80
2023-03-23T18:15:37.115Z,12.80
2023-03-23T18:18:05.030Z,12.70
2023-03-23T18:20:32.211Z,12.70
2023-03-23T18:22:59.309Z,12.60
2023-03-23T18:25:26.256Z,12.60
2023-03-23T18:27:53.372Z,12.60
2023-03-23T18:30:20.234Z,12.50
2023-03-23T18:32:47.105Z,12.60
2023-03-23T18:35:14.037Z,12.50
2023-03-23T18:37:41.331Z,12.60
2023-03-23T18:40:12.751Z,12.60
2023-03-23T18:42:40.394Z,12.60
2023-03-23T18:45:07.688Z,12.60
2023-03-23T18:47:34.795Z,12.70
2023-03-23T18:50:02.989Z,12.70
2023-03-23T18:52:34.033Z,12.70
2023-03-23T18:55:01.183Z,12.70
2023-03-23T18:57:28.309Z,12.70
2023-03-23T18:59:55.176Z,12.70
2023-03-23T19:02:24.156Z,12.70
2023-03-23T19:04:51.107Z,12.60
2023-03-23T19:07:18.429Z,12.60
2023-03-23T19:09:47.351Z,12.60
2023-03-23T19:12:15.690Z,12.60
2023-03-23T19:14:43.039Z,12.50
2023-03-23T19:17:09.947Z,12.50
2023-03-23T19:19:38.434Z,12.50
2023-03-23T19:22:06.639Z,12.40
2023-03-23T19:24:33.701Z,12.40
2023-03-23T19:27:01.701Z,12.30
2023-03-23T19:29:28.551Z,12.30
2023-03-23T19:31:56.567Z,12.30
2023-03-23T19:34:24.526Z,12.30
2023-03-23T19:36:56.296Z,12.20
2023-03-23T19:39:30.215Z,12.20
2023-03-23T19:41:57.070Z,12.20
2023-03-23T19:44:23.998Z,12.20
2023-03-23T19:46:51.561Z,12.10
2023-03-23T19:49:18.450Z,12.10
2023-03-23T19:51:46.635Z,12.10
2023-03-23T19:54:13.532Z,12.10
2023-03-23T19:56:40.573Z,12.10
2023-03-23T19:59:10.547Z,12.10
2023-03-23T20:01:37.654Z,12.10
2023-03-23T20:04:05.366Z,12.10
2023-03-23T20:06:32.948Z,12.10
2023-03-23T20:09:01.272Z,12.10
2023-03-23T20:11:28.638Z,12.10
2023-03-23T20:13:55.566Z,12.10
2023-03-23T20:16:22.757Z,12.10
2023-03-23T20:18:50.362Z,12.10
2023-03-23T20:21:20.479Z,12.10
2023-03-23T20:23:47.832Z,12.10
2023-03-23T20:26:17.100Z,12.10
2023-03-23T20:28:45.657Z,12.10
2023-03-23T20:31:19.730Z,12.10
2023-03-23T20:33:59.977Z,12.10
2023-03-23T20:36:42.241Z,12.10
2023-03-23T20:39:10.910Z,12.10
2023-03-23T20:41:38.802Z,12.10
2023-03-23T20:44:06.873Z,12.20
2023-03-23T20:46:33.815Z,12.20
2023-03-23T20:49:01.073Z,12.20
2023-03-23T20:51:27.950Z,12.20
2023-03-23T20:53:54.824Z,12.20
2023-03-23T20:56:22.340Z,12.30
2023-03-23T20:58:49.262Z,12.20
2023-03-23T21:01:16.051Z,12.20
2023-03-23T21:03:43.425Z,12.20
2023-03-23T21:06:10.797Z,12.20
2023-03-23T21:08:38.730Z,12.20
2023-03-23T21:11:06.814Z,12.30
2023-03-23T21:13:33.669Z,12.30
2023-03-23T21:16:02.129Z,12.30
2023-03-23T21:18:29.380Z,12.30
2023-03-23T21:20:57.209Z,12.30
2023-03-23T21:23:26.492Z,12.30
2023-03-23T21:25:53.674Z,12.30
2023-03-23T21:28:20.788Z,12.30
2023-03-23T21:30:48.860Z,12.30
2023-03-23T21:33:15.941Z,12.30
2023-03-23T21:35:43.200Z,12.30
2023-03-23T21:38:19.736Z,12.30
2023-03-23T21:40:49.313Z,12.20
2023-03-23T21:43:19.424Z,12.30
2023-03-23T21:45:46.263Z,12.30
2023-03-23T21:48:13.306Z,12.20
2023-03-23T21:50:44.279Z,12.30
2023-03-23T21:53:12.978Z,12.30
2023-03-23T21:55:42.105Z,12.30
2023-03-23T21:58:09.580Z,12.30
2023-03-23T22:00:36.676Z,12.30
2023-03-23T22:03:04.900Z,12.40
2023-03-23T22:05:32.129Z,12.30
2023-03-23T22:07:59.174Z,12.40
2023-03-23T22:10:26.157Z,12.40
2023-03-23T22:12:55.485Z,12.40
2023-03-23T22:15:27.724Z,12.40
2023-03-23T22:17:55.529Z,12.40
2023-03-23T22:20:22.389Z,12.50
2023-03-23T22:22:49.253Z,12.50
2023-03-23T22:25:16.061Z,12.50
2023-03-23T22:27:49.676Z,12.50
2023-03-23T22:30:16.570Z,12.60
2023-03-23T22:32:43.365Z,12.60
2023-03-23T22:35:12.558Z,12.60
2023-03-23T22:37:39.357Z,12.60
2023-03-23T22:40:10.235Z,12.60
2023-03-23T22:42:37.009Z,12.60
2023-03-23T22:45:04.070Z,12.60
2023-03-23T22:47:31.305Z,12.60
2023-03-23T22:49:58.008Z,12.60
2023-03-23T22:52:24.730Z,12.60
2023-03-23T22:54:51.482Z,12.60
2023-03-23T22:57:18.375Z,12.60
2023-03-23T22:59:48.885Z,12.50
2023-03-23T23:02:15.721Z,12.60
2023-03-23T23:04:42.950Z,12.50
2023-03-23T23:07:14.186Z,12.50
2023-03-23T23:09:42.209Z,12.50
2023-03-23T23:12:09.387Z,12.50
2023-03-23T23:14:37.360Z,12.50
2023-03-23T23:17:04.873Z,12.50
2023-03-23T23:19:32.384Z,12.50
2023-03-23T23:22:09.273Z,12.50
2023-03-23T23:24:43.549Z,12.50
2023-03-23T23:27:10.278Z,12.50
2023-03-23T23:29:36.970Z,12.50
2023-03-23T23:32:03.912Z,12.50
2023-03-23T23:34:30.880Z,12.40
2023-03-23T23:36:59.378Z,12.50
2023-03-23T23:39:27.615Z,12.50
2023-03-23T23:41:55.570Z,12.40
2023-03-23T23:44:22.546Z,12.40
2023-03-23T23:46:49.253Z,12.40
2023-03-23T23:49:15.997Z,12.40
2023-03-23T23:51:44.600Z,12.40
2023-03-23T23:54:14.571Z,12.40
2023-03-23T23:56:41.586Z,12.40
2023-03-23T23:59:08.719Z,12.40
